Ashton, Maryland
Current Conditions -  °F | °C
As of 3:35 AM on Sunday 23 Nov 2014 (Local Time) from KGAI Reporting Station
Clear Clear  
Wind Chill:   Ceiling: Unl
Heat Index:   Visibility: 10mi
Dew Point: -8°   Wind: 0mph
Humidity: 42%   Direction: NA
Pressure: 30.22"   Gusts: NA
Location:  39.15°N, 77.01°W
Report Text: KGAI 230835Z 00000KT 10SM CLR 04/M08 A3022 RMK AO1
Loading
Personal Weather Stations






























Interactive Weather Map New forecast layout! Learn more

10-Day Weather Forecast

Advertisements
Track Severe Weather on mobile